Date,TemperatureHighF,TemperatureAvgF,TemperatureLowF,DewpointHighF,DewpointAvgF,DewpointLowF,HumidityHigh,HumidityAvg,HumidityLow,PressureMaxIn,PressureMinIn,WindSpeedMaxMPH,WindSpeedAvgMPH,GustSpeedMaxMPH,PrecipitationSumIn
2013-1-1,28.8,26.0,23.5,25.7,21.8,19.5,88,84,82,30.16,29.97,4,1,11,0.00
2013-1-2,30.7,27.8,24.4,27.5,24.2,20.6,90,86,83,30.35,29.99,8,1,10,0.00
2013-1-3,42.4,34.6,27.3,33.5,28.9,22.3,88,80,67,30.47,30.26,8,3,13,0.01
2013-1-4,49.5,44.1,38.7,39.1,35.6,32.1,80,72,58,30.26,30.00,11,4,16,0.01
2013-1-5,51.1,42.6,30.6,42.8,35.5,23.3,91,77,55,30.06,29.83,14,3,18,0.05
2013-1-6,37.9,32.8,29.8,29.5,25.7,22.3,89,75,61,30.11,29.89,9,0,13,0.00
2013-1-7,39.4,29.3,19.2,29.7,19.4,8.4,89,67,48,30.33,29.91,4,0,8,0.02
2013-1-8,36.0,25.7,20.5,22.9,14.2,11.5,71,62,48,30.33,30.15,2,0,3,0.00
2013-1-9,29.3,26.0,24.1,24.4,20.5,15.2,83,79,63,30.16,30.02,0,0,0,0.00
2013-1-10,34.3,28.8,24.1,30.6,25.2,19.7,91,86,83,30.04,29.72,5,0,9,0.02
2013-1-11,44.4,33.8,27.0,37.8,28.3,17.8,91,80,66,29.90,29.67,8,1,11,0.01
2013-1-12,35.4,27.7,20.1,21.3,18.0,13.2,80,67,47,30.05,29.89,11,2,14,0.00
2013-1-13,33.4,28.4,25.2,25.6,22.4,19.8,87,78,67,30.04,29.96,8,2,11,0.00
2013-1-14,39.2,33.7,27.7,35.4,27.9,21.0,89,79,69,29.97,29.80,8,2,12,0.14
2013-1-15,41.2,37.0,34.5,38.5,34.0,31.6,93,89,81,29.86,29.61,4,1,8,0.12
2013-1-16,39.2,36.9,35.1,37.2,34.1,32.0,94,89,85,29.61,29.44,10,1,12,0.31
2013-1-17,36.7,35.3,33.3,33.2,31.1,27.8,89,84,80,29.58,29.44,8,3,13,0.01
2013-1-18,33.3,31.1,29.5,28.1,26.8,25.9,89,84,80,29.56,29.41,8,1,12,0.00
2013-1-19,32.4,27.8,25.3,27.2,21.4,17.1,89,77,61,29.56,29.40,8,0,10,0.00
2013-1-20,40.1,33.8,29.1,34.8,29.6,23.5,88,84,78,29.55,29.41,3,0,6,0.19
2013-1-21,50.0,42.9,34.5,44.9,39.2,31.3,93,87,81,29.43,29.29,3,0,5,0.04
2013-1-22,43.5,34.8,30.4,40.2,29.9,24.2,93,82,72,29.60,29.29,17,4,23,0.00
2013-1-23,35.4,32.9,29.8,32.2,29.2,25.7,88,86,82,29.76,29.59,11,3,16,0.01
2013-1-24,37.2,32.7,31.1,31.9,28.4,22.5,90,84,69,29.74,29.58,11,4,17,0.00
2013-1-25,35.6,31.2,27.5,22.5,18.9,14.3,69,60,50,29.86,29.61,13,5,20,0.00
2013-1-26,36.3,28.9,26.1,21.5,17.7,14.1,74,63,54,29.96,29.84,11,2,14,0.00
2013-1-27,33.6,29.3,23.4,25.5,20.9,16.6,86,71,57,29.99,29.83,8,1,11,0.00
2013-1-28,36.0,30.6,28.0,28.2,25.9,23.0,86,82,72,30.07,29.83,2,0,4,0.06
2013-1-29,40.3,33.3,23.5,33.7,27.9,19.2,87,80,74,30.12,29.93,8,1,11,0.02
2013-1-30,46.8,41.3,37.4,41.6,36.2,31.4,92,82,73,29.96,29.76,8,2,11,0.18
2013-1-31,54.3,45.9,39.9,39.6,33.3,26.6,84,63,35,29.97,29.76,14,3,22,0.06
2013-2-1,54.5,45.1,38.3,34.6,31.4,27.3,75,59,36,29.83,29.47,13,3,19,0.00
2013-2-2,46.8,42.9,39.2,43.1,38.1,27.1,91,84,50,29.47,29.18,6,1,10,0.37
2013-2-3,39.4,33.5,28.6,36.6,29.9,23.2,91,86,80,29.90,29.34,8,1,14,0.32
2013-2-4,37.0,32.7,25.7,27.3,24.1,18.3,81,70,62,29.93,29.87,8,1,10,0.00
2013-2-5,46.8,39.6,32.5,32.3,29.4,25.3,78,67,54,29.89,29.55,8,1,12,0.01
2013-2-6,46.4,38.1,31.6,39.4,33.2,25.0,92,83,71,29.56,29.32,8,1,11,0.11
2013-2-7,39.7,34.1,30.9,34.0,28.0,24.0,88,78,65,29.63,29.32,15,4,25,0.02
2013-2-8,46.8,34.1,27.9,28.5,24.9,19.0,85,70,40,29.77,29.63,5,1,8,0.00
2013-2-9,33.3,29.4,26.6,27.6,23.2,17.7,85,77,67,29.84,29.77,8,2,11,0.01
2013-2-10,37.6,30.0,25.2,30.7,24.8,19.9,87,81,69,29.84,29.76,4,0,7,0.01
2013-2-11,34.9,24.9,18.0,25.1,18.8,11.7,82,77,63,29.89,29.81,4,0,8,0.01
2013-2-12,36.9,32.0,19.4,29.4,24.9,14.6,82,75,66,29.82,27.28,8,3,11,0.11
2013-2-13,44.8,37.9,33.6,34.9,31.3,27.5,82,77,66,29.94,29.78,6,2,11,0.01
2013-2-14,39.7,37.3,35.1,36.9,34.2,30.4,92,89,81,30.03,29.94,4,1,8,0.34
2013-2-15,49.3,40.2,35.4,41.0,35.6,32.4,93,84,66,30.02,29.96,2,0,4,0.00
2013-2-16,50.0,39.3,32.9,37.7,32.4,27.1,89,77,56,30.09,30.02,5,1,8,0.00
2013-2-17,37.8,34.7,30.6,29.6,27.4,25.0,84,74,63,30.11,30.06,7,1,11,0.00
2013-2-18,41.9,33.3,28.6,27.9,24.2,21.7,80,69,55,30.10,30.02,5,1,8,0.00
2013-2-19,41.7,34.6,26.6,30.3,24.7,21.0,84,68,46,30.04,29.79,9,1,13,0.00
2013-2-20,44.8,35.4,27.1,30.6,25.1,18.7,86,67,41,29.99,29.80,9,2,20,0.00
2013-2-21,38.7,30.1,24.6,25.9,21.7,17.4,83,71,48,30.00,29.81,7,2,11,0.00
2013-2-22,33.6,31.1,27.9,30.5,27.3,23.0,88,86,81,30.53,29.65,9,3,14,0.11
2013-2-23,44.6,38.5,32.4,41.2,34.7,29.2,92,86,80,29.74,29.59,6,2,11,0.04
2013-2-24,46.9,43.7,40.8,42.1,38.7,35.8,88,82,75,29.83,29.69,8,2,16,0.20
2013-2-25,53.8,46.1,39.4,44.2,40.1,36.1,89,80,63,30.03,29.82,7,2,11,0.00
2013-2-26,48.2,45.3,42.1,42.6,41.0,39.4,90,85,78,30.08,29.99,6,2,8,0.07
2013-2-27,45.7,42.4,39.4,40.2,38.1,34.3,90,85,76,30.22,30.07,4,1,8,0.08
2013-2-28,57.7,41.4,29.8,39.0,32.6,25.0,85,72,42,30.27,30.12,4,0,8,0.01
2013-3-1,43.3,36.5,30.4,37.9,31.7,26.4,95,83,69,30.12,29.94,10,2,16,0.00
2013-3-2,54.3,38.8,30.7,30.6,25.9,20.6,83,62,29,30.08,29.96,8,1,11,0.00
2013-3-3,51.1,37.7,27.0,28.8,24.4,20.0,80,60,33,30.07,29.92,16,3,23,0.00
2013-3-4,56.7,38.0,25.5,30.8,21.6,14.4,78,56,21,30.28,30.00,4,0,8,0.00
2013-3-5,59.4,40.1,22.5,30.2,20.9,11.0,79,52,16,30.30,30.08,5,1,11,0.00
2013-3-6,57.2,47.3,35.6,40.9,34.9,26.4,77,63,43,30.08,29.76,4,1,8,0.00
2013-3-7,58.1,49.8,45.0,47.1,43.3,38.2,95,79,58,29.76,29.60,4,1,8,0.01
2013-3-8,71.8,53.7,42.6,52.7,47.5,42.3,99,82,43,29.62,29.50,5,0,8,0.00
2013-3-9,63.0,51.6,44.1,51.8,47.8,43.5,99,88,60,29.52,29.47,8,1,13,0.11
2013-3-10,61.2,51.3,48.0,51.4,48.5,47.2,99,91,65,29.48,29.38,6,1,8,0.06
2013-3-11,65.1,49.7,40.3,48.3,42.3,36.0,99,78,43,29.48,29.37,7,1,10,0.00
2013-3-12,64.8,47.9,32.4,44.8,37.3,29.3,96,70,38,29.50,29.37,7,1,10,0.15
2013-3-13,57.6,47.5,41.0,46.7,43.7,39.9,99,88,61,29.42,29.35,11,1,17,0.11
2013-3-14,45.7,37.7,29.5,44.9,36.5,28.7,99,95,91,29.36,29.13,16,5,21,0.41
2013-3-15,33.8,28.0,24.1,30.5,24.7,17.3,97,87,73,29.82,29.14,2,0,6,0.00
2013-3-16,44.4,31.1,23.4,24.5,18.9,13.0,84,62,38,30.05,29.82,4,0,7,0.13
2013-3-17,30.7,30.7,30.7,18.1,18.1,18.1,59,59,59,30.05,30.05,0,0,0,0.13
2013-3-18,30.7,30.7,30.7,18.1,18.1,18.1,59,59,59,30.05,30.05,0,0,0,0.13
2013-3-19,53.6,37.8,30.7,39.5,27.5,18.1,87,66,57,30.05,29.28,15,1,24,0.14
2013-3-20,62.6,47.0,32.5,40.1,34.5,28.0,89,64,32,29.57,29.51,11,2,15,0.00
2013-3-21,46.9,43.5,34.3,43.7,38.9,30.5,92,84,70,29.54,29.46,8,3,14,0.48
2013-3-22,49.6,36.9,29.3,34.5,28.7,22.2,92,73,49,29.76,29.51,8,2,14,0.05
2013-3-23,39.0,32.7,26.8,24.9,21.2,11.7,82,63,49,29.90,29.75,8,2,14,0.00
2013-3-24,34.2,28.0,21.2,12.8,6.3,-3.9,57,41,23,29.98,29.84,11,5,16,0.00
2013-3-25,31.8,28.6,26.8,26.9,16.8,5.9,92,64,40,29.85,29.47,14,6,19,0.00
2013-3-26,32.7,29.0,25.3,29.0,25.7,21.8,90,87,84,29.53,29.43,10,3,14,0.06
2013-3-27,40.5,31.6,27.5,34.8,27.1,23.6,90,83,69,29.75,29.52,2,0,4,0.08
2013-3-28,44.1,34.9,27.7,30.6,27.1,23.1,88,74,50,29.85,29.75,5,1,10,0.00
2013-3-29,42.1,36.5,32.9,38.5,32.2,28.0,92,84,72,29.78,29.52,5,1,10,0.39
2013-3-30,47.5,41.2,34.5,45.2,38.7,31.9,96,91,85,29.52,29.31,4,2,8,0.45
2013-3-31,57.0,47.8,45.7,52.6,46.5,44.9,97,95,78,29.31,29.16,5,2,8,0.02